createdAt,value
2023-05-08T00:03:06.715Z,5.73
2023-05-08T00:08:13.894Z,5.75
2023-05-08T00:13:19.551Z,5.72
2023-05-08T00:18:27.879Z,5.67
2023-05-08T00:23:35.456Z,5.60
2023-05-08T00:28:42.809Z,5.59
2023-05-08T00:33:50.228Z,5.61
2023-05-08T00:38:57.917Z,5.63
2023-05-08T00:44:05.520Z,5.63
2023-05-08T00:49:14.770Z,5.67
2023-05-08T00:54:23.199Z,5.72
2023-05-08T00:59:30.595Z,5.71
2023-05-08T01:04:38.443Z,5.70
2023-05-08T01:09:45.684Z,5.66
2023-05-08T01:15:06.833Z,5.66
2023-05-08T01:20:33.721Z,5.69
2023-05-08T01:26:13.078Z,5.66
2023-05-08T01:31:33.139Z,5.64
2023-05-08T01:36:50.066Z,5.68
2023-05-08T01:42:07.421Z,5.69
2023-05-08T01:47:16.703Z,5.69
2023-05-08T01:52:30.080Z,5.60
2023-05-08T01:57:41.605Z,5.60
2023-05-08T02:02:50.022Z,5.60
2023-05-08T02:07:58.726Z,5.57
2023-05-08T02:13:08.015Z,5.51
2023-05-08T02:18:17.158Z,5.46
2023-05-08T02:23:27.827Z,5.44
2023-05-08T02:28:36.986Z,5.42
2023-05-08T02:33:46.876Z,5.37
2023-05-08T02:38:58.449Z,5.28
2023-05-08T02:44:06.772Z,5.23
2023-05-08T02:49:20.989Z,5.15
2023-05-08T02:54:38.304Z,5.11
2023-05-08T02:59:53.184Z,5.13
2023-05-08T03:05:05.571Z,5.15
2023-05-08T03:10:16.926Z,5.10
2023-05-08T03:15:27.909Z,5.02
2023-05-08T03:20:40.191Z,4.95
2023-05-08T03:25:47.586Z,4.91
2023-05-08T03:30:57.387Z,4.91
2023-05-08T03:36:05.462Z,4.88
2023-05-08T03:41:13.660Z,4.84
2023-05-08T03:46:21.154Z,4.79
2023-05-08T03:51:30.032Z,4.74
2023-05-08T03:56:37.779Z,4.71
2023-05-08T04:01:55.562Z,4.68
2023-05-08T04:07:09.889Z,4.69
2023-05-08T04:12:22.089Z,4.68
2023-05-08T04:17:50.752Z,4.62
2023-05-08T04:22:59.549Z,4.61
2023-05-08T04:28:07.576Z,4.63
2023-05-08T04:33:16.041Z,4.60
2023-05-08T04:38:23.792Z,4.56
2023-05-08T04:43:31.019Z,4.61
2023-05-08T04:48:36.751Z,4.67
2023-05-08T04:53:43.948Z,4.70
2023-05-08T04:58:51.412Z,4.74
2023-05-08T05:03:58.879Z,4.76
2023-05-08T05:09:06.816Z,4.85
2023-05-08T05:14:14.187Z,4.90
2023-05-08T05:19:21.586Z,4.87
2023-05-08T05:24:29.068Z,4.88
2023-05-08T05:29:36.552Z,4.90
2023-05-08T05:34:43.926Z,4.95
2023-05-08T05:39:52.259Z,5.01
2023-05-08T05:44:59.552Z,5.08
2023-05-08T05:50:08.544Z,5.12
2023-05-08T05:55:16.500Z,5.17
2023-05-08T06:00:25.760Z,5.22
2023-05-08T06:05:33.147Z,5.22
2023-05-08T06:10:40.533Z,5.24
2023-05-08T06:15:47.777Z,5.29
2023-05-08T06:21:00.007Z,5.39
2023-05-08T06:26:07.654Z,5.48
2023-05-08T06:31:17.441Z,5.59
2023-05-08T06:36:24.691Z,5.69
2023-05-08T06:41:30.775Z,5.73
2023-05-08T06:46:38.187Z,5.67
2023-05-08T06:51:45.533Z,5.70
2023-05-08T07:03:42.860Z,5.98
2023-05-08T07:08:50.117Z,6.19
2023-05-08T07:13:57.349Z,6.37
2023-05-08T07:19:04.624Z,6.42
2023-05-08T07:24:12.227Z,6.51
2023-05-08T07:29:20.539Z,6.59
2023-05-08T07:34:27.971Z,6.63
2023-05-08T07:39:36.026Z,6.64
2023-05-08T07:44:53.563Z,6.62
2023-05-08T07:50:01.839Z,6.66
2023-05-08T07:55:11.407Z,6.69
2023-05-08T08:00:20.765Z,6.77
2023-05-08T08:05:28.187Z,6.90
2023-05-08T08:10:35.569Z,7.06
2023-05-08T08:15:42.791Z,7.25
2023-05-08T08:20:50.042Z,7.51
2023-05-08T08:25:55.830Z,7.62
2023-05-08T08:31:03.287Z,7.67
2023-05-08T08:36:16.088Z,7.66
2023-05-08T08:41:24.101Z,7.68
2023-05-08T08:46:33.996Z,7.80
2023-05-08T08:51:52.818Z,7.87
2023-05-08T08:57:02.173Z,7.90
2023-05-08T09:02:15.114Z,8.03
2023-05-08T09:07:24.431Z,8.06
2023-05-08T09:12:31.665Z,8.12
2023-05-08T09:17:38.948Z,8.21
2023-05-08T09:22:47.355Z,8.26
2023-05-08T09:27:54.716Z,8.35
2023-05-08T09:33:04.838Z,8.47
2023-05-08T09:38:32.445Z,8.57
2023-05-08T09:43:40.363Z,8.61
2023-05-08T09:48:48.071Z,8.70
2023-05-08T09:53:56.146Z,8.73
2023-05-08T10:04:41.267Z,8.71
2023-05-08T10:10:03.163Z,8.64
2023-05-08T10:15:13.337Z,8.66
2023-05-08T10:20:25.190Z,8.70
2023-05-08T10:25:36.595Z,8.71
2023-05-08T10:30:49.803Z,8.70
2023-05-08T10:35:57.503Z,8.76
2023-05-08T10:41:06.906Z,8.89
2023-05-08T10:46:22.717Z,9.02
2023-05-08T10:51:42.029Z,9.14
2023-05-08T10:56:53.009Z,9.28
2023-05-08T11:02:08.550Z,9.35
2023-05-08T11:07:16.369Z,9.36
2023-05-08T11:12:28.177Z,9.43
2023-05-08T11:17:36.202Z,9.51
2023-05-08T11:22:50.247Z,9.59
2023-05-08T11:28:14.351Z,9.62
2023-05-08T11:33:22.934Z,9.71
2023-05-08T11:38:34.416Z,9.84
2023-05-08T11:44:18.565Z,10.02
2023-05-08T11:49:30.346Z,10.22
2023-05-08T11:54:38.114Z,10.21
2023-05-08T11:59:45.877Z,10.08
2023-05-08T12:04:53.362Z,10.00
2023-05-08T12:10:02.054Z,10.02
2023-05-08T12:15:15.323Z,10.04
2023-05-08T12:20:23.947Z,10.06
2023-05-08T12:25:31.733Z,10.14
2023-05-08T12:30:39.502Z,10.26
2023-05-08T12:35:47.953Z,10.35
2023-05-08T12:40:56.106Z,10.30
2023-05-08T12:46:04.955Z,10.26
2023-05-08T12:51:13.928Z,10.25
2023-05-08T12:56:25.251Z,10.35
2023-05-08T13:01:32.869Z,10.45
2023-05-08T13:06:40.248Z,10.42
2023-05-08T13:11:48.443Z,10.31
2023-05-08T13:16:55.920Z,10.22
2023-05-08T13:22:03.475Z,10.17
2023-05-08T13:27:10.931Z,10.16
2023-05-08T13:32:19.082Z,10.20
2023-05-08T13:37:29.317Z,10.25
2023-05-08T13:42:36.570Z,10.32
2023-05-08T13:47:44.535Z,10.38
2023-05-08T13:52:54.684Z,10.40
2023-05-08T13:58:02.975Z,10.41
2023-05-08T14:03:12.748Z,10.55
2023-05-08T14:08:20.236Z,10.64
2023-05-08T14:13:27.657Z,10.67
2023-05-08T14:18:35.498Z,10.63
2023-05-08T14:23:44.211Z,10.58
2023-05-08T14:28:51.857Z,10.51
2023-05-08T14:33:59.574Z,10.44
2023-05-08T14:39:07.053Z,10.41
2023-05-08T14:44:15.282Z,10.42
2023-05-08T14:49:35.848Z,10.48
2023-05-08T14:54:45.733Z,10.54
2023-05-08T14:59:55.529Z,10.54
2023-05-08T15:05:07.971Z,10.52
2023-05-08T15:10:16.036Z,10.53
2023-05-08T15:15:23.808Z,10.56
2023-05-08T15:20:31.444Z,10.54
2023-05-08T15:25:39.010Z,10.51
2023-05-08T15:30:48.517Z,10.48
2023-05-08T15:35:55.990Z,10.43
2023-05-08T15:41:03.531Z,10.50
2023-05-08T15:46:11.078Z,10.58
2023-05-08T15:51:18.500Z,10.70
2023-05-08T15:56:26.682Z,10.80
2023-05-08T16:01:34.616Z,10.85
2023-05-08T16:06:42.745Z,10.82
2023-05-08T16:11:52.277Z,10.78
2023-05-08T16:17:02.248Z,10.71
2023-05-08T16:22:11.285Z,10.63
2023-05-08T16:27:19.385Z,10.53
2023-05-08T16:32:27.912Z,10.50
2023-05-08T16:37:37.533Z,10.49
2023-05-08T16:42:47.638Z,10.51
2023-05-08T16:47:55.649Z,10.54
2023-05-08T16:53:03.890Z,10.59
2023-05-08T16:58:11.644Z,10.64
2023-05-08T17:03:19.146Z,10.64
2023-05-08T17:08:27.642Z,10.57
2023-05-08T17:13:35.052Z,10.49
2023-05-08T17:18:42.590Z,10.42
2023-05-08T17:23:50.357Z,10.38
2023-05-08T17:29:00.272Z,10.33
2023-05-08T17:34:08.828Z,10.28
2023-05-08T17:39:19.997Z,10.25
2023-05-08T17:44:27.593Z,10.21
2023-05-08T17:49:35.480Z,10.18
2023-05-08T17:54:42.860Z,10.13
2023-05-08T17:59:51.015Z,10.07
2023-05-08T18:04:58.830Z,10.00
2023-05-08T18:10:07.060Z,9.94
2023-05-08T18:15:15.735Z,9.90
2023-05-08T18:20:23.806Z,9.84
2023-05-08T18:25:31.163Z,9.80
2023-05-08T18:30:40.403Z,9.75
2023-05-08T18:35:48.249Z,9.69
2023-05-08T18:40:55.682Z,9.64
2023-05-08T18:46:08.633Z,9.56
2023-05-08T18:51:16.642Z,9.49
2023-05-08T18:56:24.011Z,9.42
2023-05-08T19:01:31.457Z,9.35
2023-05-08T19:06:39.951Z,9.24
2023-05-08T19:11:48.418Z,9.13
2023-05-08T19:16:58.296Z,9.06
2023-05-08T19:22:08.052Z,8.99
2023-05-08T19:27:15.733Z,8.95
2023-05-08T19:32:23.495Z,8.88
2023-05-08T19:37:31.401Z,8.78
2023-05-08T19:42:38.871Z,8.70
2023-05-08T19:47:50.290Z,8.66
2023-05-08T19:52:57.993Z,8.58
2023-05-08T19:58:07.213Z,8.52
2023-05-08T20:03:14.918Z,8.45
2023-05-08T20:08:22.926Z,8.37
2023-05-08T20:13:30.445Z,8.30
2023-05-08T20:18:38.604Z,8.26
2023-05-08T20:23:46.559Z,8.23
2023-05-08T20:28:54.216Z,8.13
2023-05-08T20:34:02.586Z,8.03
2023-05-08T20:39:11.268Z,7.93
2023-05-08T20:54:09.152Z,7.79
2023-05-08T20:59:18.974Z,7.75
2023-05-08T21:04:27.856Z,7.70
2023-05-08T21:09:35.582Z,7.66
2023-05-08T21:14:44.350Z,7.63
2023-05-08T21:19:54.251Z,7.58
2023-05-08T21:25:02.130Z,7.53
2023-05-08T21:30:15.526Z,7.47
2023-05-08T21:35:24.021Z,7.44
2023-05-08T21:40:31.840Z,7.37
2023-05-08T21:45:39.649Z,7.27
2023-05-08T21:50:47.423Z,7.22
2023-05-08T21:55:56.521Z,7.17
2023-05-08T22:01:04.175Z,7.10
2023-05-08T22:06:13.099Z,6.93
2023-05-08T22:11:20.720Z,6.81
2023-05-08T22:16:29.374Z,6.81
2023-05-08T22:21:37.413Z,6.85
2023-05-08T22:26:44.967Z,6.86
2023-05-08T22:31:52.936Z,6.85
2023-05-08T22:37:00.599Z,6.81
2023-05-08T22:42:08.630Z,6.76
2023-05-08T22:47:20.060Z,6.70
2023-05-08T22:52:28.513Z,6.67
2023-05-08T22:57:36.580Z,6.62
2023-05-08T23:02:44.624Z,6.57
2023-05-08T23:07:52.856Z,6.51
2023-05-08T23:13:00.791Z,6.42
2023-05-08T23:18:08.868Z,6.36
2023-05-08T23:23:16.586Z,6.37
2023-05-08T23:31:10.549Z,6.38
2023-05-08T23:36:18.349Z,6.32
2023-05-08T23:41:26.451Z,6.26
2023-05-08T23:46:35.698Z,6.19
2023-05-08T23:51:43.151Z,6.12
2023-05-08T23:56:50.614Z,6.07
